createdAt,value
2018-06-10T00:00:35.463Z,19.52
2018-06-10T00:02:03.074Z,19.52
2018-06-10T00:03:29.620Z,19.52
2018-06-10T00:04:58.318Z,19.52
2018-06-10T00:06:25.855Z,19.51
2018-06-10T00:07:52.361Z,19.49
2018-06-10T00:09:19.850Z,19.47
2018-06-10T00:10:48.394Z,19.44
2018-06-10T00:12:16.086Z,19.39
2018-06-10T00:13:42.589Z,19.36
2018-06-10T00:15:11.197Z,19.33
2018-06-10T00:16:37.733Z,19.30
2018-06-10T00:18:06.326Z,19.29
2018-06-10T00:19:32.653Z,19.27
2018-06-10T00:21:00.331Z,19.26
2018-06-10T00:22:27.986Z,19.24
2018-06-10T00:23:56.605Z,19.22
2018-06-10T00:25:24.109Z,19.19
2018-06-10T00:26:50.413Z,19.16
2018-06-10T00:28:18.063Z,19.13
2018-06-10T00:29:45.632Z,19.09
2018-06-10T00:31:14.325Z,19.04
2018-06-10T00:32:41.689Z,19.01
2018-06-10T00:34:08.292Z,18.98
2018-06-10T00:35:36.846Z,18.94
2018-06-10T00:37:03.250Z,18.92
2018-06-10T00:38:31.948Z,18.90
2018-06-10T00:39:58.355Z,18.89
2018-06-10T00:41:26.945Z,18.89
2018-06-10T00:42:53.478Z,18.88
2018-06-10T00:44:21.198Z,18.87
2018-06-10T00:45:49.896Z,18.86
2018-06-10T00:47:17.383Z,18.85
2018-06-10T00:48:45.014Z,18.85
2018-06-10T00:50:11.466Z,18.86
2018-06-10T00:51:40.129Z,18.88
2018-06-10T00:53:07.529Z,18.89
2018-06-10T00:54:35.089Z,18.90
2018-06-10T00:56:01.528Z,18.92
2018-06-10T00:57:28.859Z,18.92
2018-06-10T00:58:57.458Z,18.92
2018-06-10T01:00:24.045Z,18.91
2018-06-10T01:01:51.478Z,18.91
2018-06-10T01:03:20.149Z,18.90
2018-06-10T01:04:47.703Z,18.90
2018-06-10T01:06:15.293Z,18.90
2018-06-10T01:07:41.872Z,18.87
2018-06-10T01:09:10.457Z,18.84
2018-06-10T01:10:36.883Z,18.80
2018-06-10T01:12:04.417Z,18.75
2018-06-10T01:13:31.987Z,18.71
2018-06-10T01:14:59.552Z,18.65
2018-06-10T01:16:27.236Z,18.59
2018-06-10T01:17:55.809Z,18.52
2018-06-10T01:19:22.374Z,18.47
2018-06-10T01:20:51.046Z,18.42
2018-06-10T01:22:17.731Z,18.38
2018-06-10T01:23:45.117Z,18.37
2018-06-10T01:25:13.819Z,18.35
2018-06-10T01:26:41.277Z,18.34
2018-06-10T01:28:08.880Z,18.33
2018-06-10T01:29:35.341Z,18.34
2018-06-10T01:31:02.592Z,18.34
2018-06-10T01:32:30.152Z,18.34
2018-06-10T01:33:58.831Z,18.34
2018-06-10T01:35:25.192Z,18.35
2018-06-10T01:36:52.444Z,18.35
2018-06-10T01:38:20.087Z,18.35
2018-06-10T01:39:47.685Z,18.34
2018-06-10T01:41:16.416Z,18.32
2018-06-10T01:42:44.068Z,18.31
2018-06-10T01:44:10.567Z,18.30
2018-06-10T01:45:38.053Z,18.30
2018-06-10T01:47:05.511Z,18.29
2018-06-10T01:48:32.943Z,18.26
2018-06-10T01:50:00.473Z,18.20
2018-06-10T01:51:28.026Z,18.13
2018-06-10T01:52:55.673Z,18.07
2018-06-10T01:54:24.234Z,18.02
2018-06-10T01:55:50.719Z,17.96
2018-06-10T01:57:17.944Z,17.91
2018-06-10T01:58:45.347Z,17.86
2018-06-10T02:00:12.693Z,17.82
2018-06-10T02:01:40.310Z,17.79
2018-06-10T02:03:09.136Z,17.77
2018-06-10T02:04:36.511Z,17.76
2018-06-10T02:06:03.018Z,17.74
2018-06-10T02:07:31.619Z,17.73
2018-06-10T02:08:57.969Z,17.72
2018-06-10T02:10:25.615Z,17.71
2018-06-10T02:11:53.199Z,17.71
2018-06-10T02:13:21.773Z,17.71
2018-06-10T02:14:49.123Z,17.69
2018-06-10T02:16:15.622Z,17.66
2018-06-10T02:17:44.175Z,17.61
2018-06-10T02:19:10.729Z,17.55
2018-06-10T02:20:38.140Z,17.52
2018-06-10T02:22:05.589Z,17.48
2018-06-10T02:23:32.954Z,17.43
2018-06-10T02:25:00.390Z,17.40
2018-06-10T02:26:28.118Z,17.38
2018-06-10T02:27:56.605Z,17.35
2018-06-10T02:29:24.117Z,17.33
2018-06-10T02:30:50.404Z,17.31
2018-06-10T02:32:17.853Z,17.30
2018-06-10T02:33:45.503Z,17.30
2018-06-10T02:35:14.013Z,17.30
2018-06-10T02:36:41.526Z,17.32
2018-06-10T02:38:07.763Z,17.33
2018-06-10T02:39:36.301Z,17.34
2018-06-10T02:41:02.607Z,17.33
2018-06-10T02:42:30.028Z,17.32
2018-06-10T02:43:57.608Z,17.31
2018-06-10T02:45:26.087Z,17.30
2018-06-10T02:46:52.447Z,17.28
2018-06-10T02:48:21.185Z,17.27
2018-06-10T02:49:47.916Z,17.27
2018-06-10T02:51:15.219Z,17.27
2018-06-10T02:52:42.772Z,17.29
2018-06-10T02:54:11.417Z,17.30
2018-06-10T02:55:38.782Z,17.32
2018-06-10T02:57:05.271Z,17.33
2018-06-10T02:58:32.733Z,17.34
2018-06-10T03:00:01.165Z,17.35
2018-06-10T03:01:27.520Z,17.37
2018-06-10T03:02:56.166Z,17.37
2018-06-10T03:04:23.569Z,17.36
2018-06-10T03:05:50.155Z,17.35
2018-06-10T03:07:17.750Z,17.34
2018-06-10T03:08:46.291Z,17.33
2018-06-10T03:10:12.722Z,17.31
2018-06-10T03:11:41.324Z,17.30
2018-06-10T03:13:08.658Z,17.29
2018-06-10T03:14:36.225Z,17.29
2018-06-10T03:16:03.697Z,17.28
2018-06-10T03:17:29.878Z,17.29
2018-06-10T03:18:58.544Z,17.32
2018-06-10T03:20:24.968Z,17.34
2018-06-10T03:21:52.471Z,17.36
2018-06-10T03:23:20.112Z,17.38
2018-06-10T03:24:48.587Z,17.39
2018-06-10T03:26:16.085Z,17.40
2018-06-10T03:27:43.603Z,17.41
2018-06-10T03:29:10.038Z,17.42
2018-06-10T03:30:38.642Z,17.42
2018-06-10T03:32:06.158Z,17.43
2018-06-10T03:33:33.598Z,17.44
2018-06-10T03:35:00.959Z,17.45
2018-06-10T03:36:27.592Z,17.46
2018-06-10T03:37:55.077Z,17.48
2018-06-10T03:39:23.616Z,17.51
2018-06-10T03:40:51.137Z,17.53
2018-06-10T03:42:18.731Z,17.55
2018-06-10T03:43:45.369Z,17.58
2018-06-10T03:45:12.940Z,17.61
2018-06-10T03:46:40.699Z,17.60
2018-06-10T03:48:08.153Z,17.60
2018-06-10T03:49:35.517Z,17.60
2018-06-10T03:51:04.091Z,17.61
2018-06-10T03:52:31.744Z,17.64
2018-06-10T03:53:58.243Z,17.66
2018-06-10T03:55:26.794Z,17.67
2018-06-10T03:56:53.192Z,17.68
2018-06-10T03:58:20.774Z,17.70
2018-06-10T03:59:48.235Z,17.74
2018-06-10T04:01:16.831Z,17.78
2018-06-10T04:02:43.216Z,17.83
2018-06-10T04:04:10.717Z,17.90
2018-06-10T04:05:38.161Z,17.97
2018-06-10T04:07:05.789Z,18.03
2018-06-10T04:08:34.313Z,18.04
2018-06-10T04:10:01.921Z,18.07
2018-06-10T04:11:28.375Z,18.09
2018-06-10T04:12:55.964Z,18.11
2018-06-10T04:14:23.535Z,18.15
2018-06-10T04:15:52.116Z,18.18
2018-06-10T04:17:19.706Z,18.22
2018-06-10T04:18:47.322Z,18.27
2018-06-10T04:20:13.848Z,18.29
2018-06-10T04:21:41.470Z,18.32
2018-06-10T04:23:08.964Z,18.36
2018-06-10T04:24:37.544Z,18.39
2018-06-10T04:26:05.052Z,18.42
2018-06-10T04:27:31.512Z,18.44
2018-06-10T04:28:59.088Z,18.47
2018-06-10T04:30:26.743Z,18.47
2018-06-10T04:31:54.370Z,18.47
2018-06-10T04:33:21.963Z,18.47
2018-06-10T04:34:49.777Z,18.47
2018-06-10T04:36:17.443Z,18.48
2018-06-10T04:37:44.833Z,18.47
2018-06-10T04:39:12.349Z,18.48
2018-06-10T04:40:39.676Z,18.49
2018-06-10T04:42:08.175Z,18.50
2018-06-10T04:43:35.713Z,18.52
2018-06-10T04:45:02.062Z,18.53
2018-06-10T04:46:30.541Z,18.54
2018-06-10T04:47:56.852Z,18.55
2018-06-10T04:49:24.518Z,18.56
2018-06-10T04:50:53.221Z,18.59
2018-06-10T04:52:20.886Z,18.62
2018-06-10T04:53:48.367Z,18.65
2018-06-10T04:55:14.692Z,18.68
2018-06-10T04:56:42.207Z,18.73
2018-06-10T04:58:09.803Z,18.77
2018-06-10T04:59:37.303Z,18.83
2018-06-10T05:01:04.981Z,18.88
2018-06-10T05:02:33.606Z,18.92
2018-06-10T05:04:00.271Z,18.96
2018-06-10T05:05:27.873Z,19.00
2018-06-10T05:06:56.274Z,19.05
2018-06-10T05:09:50.458Z,19.18
2018-06-10T05:11:17.897Z,19.26
2018-06-10T05:12:45.624Z,19.35
2018-06-10T05:14:14.300Z,19.44
2018-06-10T05:15:41.964Z,19.52
2018-06-10T05:17:08.374Z,19.60
2018-06-10T05:18:36.973Z,19.68
2018-06-10T05:20:04.780Z,19.77
2018-06-10T05:21:31.176Z,19.86
2018-06-10T05:22:58.626Z,19.96
2018-06-10T05:24:26.267Z,20.05
2018-06-10T05:25:54.144Z,20.15
2018-06-10T05:27:22.788Z,20.23
2018-06-10T05:28:49.192Z,20.30
2018-06-10T05:30:16.745Z,20.38
2018-06-10T05:31:44.257Z,20.46
2018-06-10T05:33:12.992Z,20.53
2018-06-10T05:34:39.660Z,20.59
2018-06-10T05:36:07.298Z,20.68
2018-06-10T05:37:34.915Z,20.85
2018-06-10T05:39:02.497Z,21.06
2018-06-10T05:40:30.267Z,21.29
2018-06-10T05:41:57.972Z,21.54
2018-06-10T05:43:25.533Z,21.74
2018-06-10T05:44:53.270Z,21.91
2018-06-10T05:46:21.945Z,22.03
2018-06-10T05:47:48.648Z,22.11
2018-06-10T05:49:16.208Z,22.15
2018-06-10T05:50:43.826Z,22.23
2018-06-10T05:52:11.448Z,22.34
2018-06-10T05:53:39.064Z,22.46
2018-06-10T05:55:06.612Z,22.60
2018-06-10T05:56:35.251Z,22.68
2018-06-10T05:58:01.548Z,22.75
2018-06-10T05:59:30.330Z,22.77
2018-06-10T06:00:57.005Z,22.80
2018-06-10T06:02:25.740Z,22.83
2018-06-10T06:03:52.424Z,22.82
2018-06-10T06:05:20.156Z,22.83
2018-06-10T06:06:47.645Z,22.83
2018-06-10T06:08:15.247Z,22.80
2018-06-10T06:09:42.905Z,22.80
2018-06-10T06:11:11.547Z,22.83
2018-06-10T06:12:39.220Z,22.83
2018-06-10T06:14:05.576Z,22.75
2018-06-10T06:15:33.177Z,22.63
2018-06-10T06:17:00.838Z,22.68
2018-06-10T06:18:29.556Z,22.72
2018-06-10T06:19:56.189Z,22.75
2018-06-10T06:21:23.735Z,22.79
2018-06-10T06:22:51.387Z,22.75
2018-06-10T06:24:19.027Z,22.79
2018-06-10T06:25:46.829Z,22.83
2018-06-10T06:27:14.528Z,22.94
2018-06-10T06:28:41.977Z,22.92
2018-06-10T06:30:09.648Z,22.89
2018-06-10T06:31:38.261Z,22.96
2018-06-10T06:33:04.605Z,23.08
2018-06-10T06:34:33.259Z,23.19
2018-06-10T06:35:59.786Z,23.39
2018-06-10T06:37:28.547Z,23.61
2018-06-10T06:38:55.269Z,23.80
2018-06-10T06:40:22.946Z,24.00
2018-06-10T06:41:50.731Z,24.18
2018-06-10T06:43:18.421Z,24.36
2018-06-10T06:44:47.245Z,24.70
2018-06-10T06:46:14.954Z,25.02
2018-06-10T06:47:41.697Z,25.24
2018-06-10T06:49:09.377Z,25.44
2018-06-10T06:50:37.047Z,25.49
2018-06-10T06:52:04.615Z,25.45
2018-06-10T06:53:33.192Z,25.40
2018-06-10T06:54:59.906Z,25.36
2018-06-10T06:56:27.324Z,25.33
2018-06-10T06:57:55.081Z,25.36
2018-06-10T06:59:22.580Z,25.34
2018-06-10T07:00:50.391Z,25.35
2018-06-10T07:02:18.055Z,25.38
2018-06-10T07:03:45.663Z,25.38
2018-06-10T07:05:13.263Z,25.32
2018-06-10T07:06:40.835Z,25.28
2018-06-10T07:08:09.554Z,25.26
2018-06-10T07:09:36.116Z,25.27
2018-06-10T07:11:03.742Z,25.34
2018-06-10T07:12:31.226Z,25.44
2018-06-10T07:13:58.805Z,25.54
2018-06-10T07:15:26.354Z,25.69
2018-06-10T07:16:53.997Z,25.90
2018-06-10T07:18:21.617Z,26.06
2018-06-10T07:19:50.326Z,26.10
2018-06-10T07:21:17.996Z,26.19
2018-06-10T07:22:44.503Z,26.24
2018-06-10T07:24:12.274Z,26.27
2018-06-10T07:25:41.027Z,26.31
2018-06-10T07:27:07.583Z,26.34
2018-06-10T07:28:36.247Z,26.38
2018-06-10T07:30:02.865Z,26.38
2018-06-10T07:31:30.603Z,26.26
2018-06-10T07:32:58.274Z,26.19
2018-06-10T07:34:25.918Z,26.19
2018-06-10T07:35:54.647Z,26.19
2018-06-10T07:37:21.300Z,26.21
2018-06-10T07:38:49.980Z,26.24
2018-06-10T07:40:16.709Z,26.29
2018-06-10T07:41:45.418Z,26.34
2018-06-10T07:43:12.063Z,26.37
2018-06-10T07:44:39.738Z,26.40
2018-06-10T07:46:07.450Z,26.38
2018-06-10T07:47:35.058Z,26.36
2018-06-10T07:49:02.513Z,26.29
2018-06-10T07:50:30.269Z,26.23
2018-06-10T07:51:57.870Z,26.15
2018-06-10T07:53:26.519Z,26.13
2018-06-10T07:54:53.194Z,26.12
2018-06-10T07:56:20.843Z,26.13
2018-06-10T07:57:48.606Z,26.19
2018-06-10T07:59:16.164Z,26.26
2018-06-10T08:00:43.777Z,26.25
2018-06-10T08:02:11.475Z,26.27
2018-06-10T08:03:39.318Z,26.32
2018-06-10T08:05:07.052Z,26.38
2018-06-10T08:06:34.697Z,26.42
2018-06-10T08:08:02.311Z,26.43
2018-06-10T08:09:30.262Z,26.46
2018-06-10T08:10:57.731Z,26.49
2018-06-10T08:12:25.481Z,26.50
2018-06-10T08:13:54.084Z,26.50
2018-06-10T08:15:20.735Z,26.55
2018-06-10T08:16:48.435Z,26.60
2018-06-10T08:18:15.939Z,26.64
2018-06-10T08:19:44.395Z,26.67
2018-06-10T08:21:11.004Z,26.70
2018-06-10T08:22:39.724Z,26.71
2018-06-10T08:24:06.404Z,26.75
2018-06-10T08:25:34.105Z,26.78
2018-06-10T08:27:01.733Z,26.80
2018-06-10T08:28:29.339Z,26.82
2018-06-10T08:29:57.835Z,26.84
2018-06-10T08:31:24.023Z,26.86
2018-06-10T08:32:51.619Z,26.92
2018-06-10T08:34:19.174Z,26.98
2018-06-10T08:35:46.868Z,27.01
2018-06-10T08:37:14.618Z,27.05
2018-06-10T08:38:42.243Z,27.11
2018-06-10T08:40:09.953Z,27.18
2018-06-10T08:41:37.636Z,27.26
2018-06-10T08:43:05.367Z,27.32
2018-06-10T08:44:32.942Z,27.37
2018-06-10T08:46:00.652Z,27.42
2018-06-10T08:47:28.290Z,27.43
2018-06-10T08:48:56.089Z,27.45
2018-06-10T08:50:23.709Z,27.51
2018-06-10T08:51:51.109Z,27.58
2018-06-10T08:53:18.846Z,27.65
2018-06-10T08:54:46.623Z,27.68
2018-06-10T08:56:14.204Z,27.73
2018-06-10T08:57:41.856Z,27.76
2018-06-10T08:59:09.465Z,27.83
2018-06-10T09:00:37.157Z,27.89
2018-06-10T09:02:05.862Z,27.93
2018-06-10T09:03:32.517Z,27.93
2018-06-10T09:05:01.241Z,27.97
2018-06-10T09:06:28.071Z,28.04
2018-06-10T09:07:55.821Z,28.14
2018-06-10T09:09:23.477Z,28.21
2018-06-10T09:10:52.250Z,28.26
2018-06-10T09:12:18.724Z,28.30
2018-06-10T09:13:46.234Z,28.34
2018-06-10T09:15:13.936Z,28.36
2018-06-10T09:16:41.636Z,28.40
2018-06-10T09:18:09.117Z,28.40
2018-06-10T09:19:36.839Z,28.40
2018-06-10T09:21:04.265Z,28.41
2018-06-10T09:22:31.766Z,28.41
2018-06-10T09:23:59.467Z,28.43
2018-06-10T09:25:27.314Z,28.49
2018-06-10T09:26:55.011Z,28.54
2018-06-10T09:28:22.725Z,28.58
2018-06-10T09:29:50.398Z,28.65
2018-06-10T09:31:18.208Z,28.69
2018-06-10T09:32:45.804Z,28.74
2018-06-10T09:34:14.330Z,28.78
2018-06-10T09:35:40.867Z,28.82
2018-06-10T09:37:09.564Z,28.89
2018-06-10T09:38:37.185Z,28.93
2018-06-10T09:40:03.793Z,28.94
2018-06-10T09:41:31.619Z,28.94
2018-06-10T09:43:00.377Z,28.92
2018-06-10T09:44:27.142Z,28.92
2018-06-10T09:45:54.809Z,28.93
2018-06-10T09:47:22.535Z,28.95
2018-06-10T09:48:51.087Z,28.98
2018-06-10T09:50:17.728Z,29.02
2018-06-10T09:51:46.416Z,29.05
2018-06-10T09:53:13.207Z,29.08
2018-06-10T09:54:40.907Z,29.04
2018-06-10T09:56:09.479Z,29.08
2018-06-10T09:57:35.884Z,29.11
2018-06-10T09:59:03.534Z,29.14
2018-06-10T10:00:31.253Z,29.15
2018-06-10T10:01:58.805Z,29.18
2018-06-10T10:03:26.469Z,29.20
2018-06-10T10:04:54.228Z,29.22
2018-06-10T10:06:21.969Z,29.27
2018-06-10T10:07:50.695Z,29.28
2018-06-10T10:09:17.471Z,29.32
2018-06-10T10:10:45.195Z,29.37
2018-06-10T10:12:12.905Z,29.42
2018-06-10T10:13:40.508Z,29.47
2018-06-10T10:15:08.287Z,29.46
2018-06-10T10:16:36.006Z,29.42
2018-06-10T10:18:03.734Z,29.43
2018-06-10T10:19:31.413Z,29.46
2018-06-10T10:21:00.070Z,29.48
2018-06-10T10:22:26.551Z,29.51
2018-06-10T10:23:55.199Z,29.56
2018-06-10T10:25:21.894Z,29.62
2018-06-10T10:26:49.415Z,29.66
2018-06-10T10:28:18.151Z,29.72
2018-06-10T10:29:44.804Z,29.75
2018-06-10T10:31:12.477Z,29.77
2018-06-10T10:32:41.229Z,29.79
2018-06-10T10:34:07.900Z,29.74
2018-06-10T10:35:35.689Z,29.70
2018-06-10T10:37:03.359Z,29.68
2018-06-10T10:38:31.183Z,29.66
2018-06-10T10:39:58.893Z,29.63
2018-06-10T10:41:26.659Z,29.66
2018-06-10T10:42:54.378Z,29.73
2018-06-10T10:44:22.189Z,29.82
2018-06-10T10:45:49.899Z,29.92
2018-06-10T10:47:17.684Z,30.00
2018-06-10T10:48:45.187Z,30.06
2018-06-10T10:50:12.909Z,30.12
2018-06-10T10:51:40.782Z,30.25
2018-06-10T10:53:09.515Z,30.41
2018-06-10T10:54:36.250Z,30.59
2018-06-10T10:56:03.842Z,30.77
2018-06-10T10:57:31.703Z,30.94
2018-06-10T10:58:59.320Z,31.04
2018-06-10T11:00:27.076Z,31.10
2018-06-10T11:01:54.816Z,31.15
2018-06-10T11:03:23.501Z,31.20
2018-06-10T11:04:50.140Z,31.22
2018-06-10T11:06:17.887Z,31.25
2018-06-10T11:07:46.688Z,31.34
2018-06-10T11:09:13.474Z,31.46
2018-06-10T11:10:41.153Z,31.61
2018-06-10T11:12:08.929Z,31.75
2018-06-10T11:13:37.529Z,31.82
2018-06-10T11:15:04.279Z,31.85
2018-06-10T11:16:31.900Z,31.79
2018-06-10T11:17:59.671Z,31.67
2018-06-10T11:19:27.381Z,31.54
2018-06-10T11:20:56.118Z,31.38
2018-06-10T11:22:22.885Z,31.26
2018-06-10T11:23:50.636Z,31.09
2018-06-10T11:25:18.260Z,30.96
2018-06-10T11:26:45.833Z,30.80
2018-06-10T11:28:13.603Z,30.63
2018-06-10T11:29:41.401Z,30.42
2018-06-10T11:31:10.102Z,30.25
2018-06-10T11:32:36.860Z,30.16
2018-06-10T11:34:04.453Z,30.06
2018-06-10T11:35:32.026Z,29.94
2018-06-10T11:37:00.676Z,29.89
2018-06-10T11:38:28.189Z,29.84
2018-06-10T11:39:54.964Z,29.77
2018-06-10T11:41:22.680Z,29.72
2018-06-10T11:42:50.318Z,29.60
2018-06-10T11:44:18.036Z,29.53
2018-06-10T11:45:45.766Z,29.45
2018-06-10T11:47:13.533Z,29.38
2018-06-10T11:48:41.238Z,29.33
2018-06-10T11:50:08.871Z,29.29
2018-06-10T11:51:36.573Z,29.26
2018-06-10T11:53:04.224Z,29.21
2018-06-10T11:54:31.784Z,29.16
2018-06-10T11:55:59.453Z,29.10
2018-06-10T11:57:26.887Z,29.06
2018-06-10T11:58:54.644Z,29.01
2018-06-10T12:00:22.371Z,28.93
2018-06-10T12:01:50.234Z,28.86
2018-06-10T12:03:17.808Z,28.79
2018-06-10T12:04:45.523Z,28.70
2018-06-10T12:06:14.200Z,28.48
2018-06-10T12:07:40.794Z,27.46
2018-06-10T12:09:08.299Z,25.04
2018-06-10T12:10:35.844Z,23.06
2018-06-10T12:12:03.256Z,21.96
2018-06-10T12:13:30.807Z,21.39
2018-06-10T12:14:58.351Z,20.82
2018-06-10T12:16:25.949Z,20.45
2018-06-10T12:17:53.371Z,20.02
2018-06-10T12:19:20.941Z,19.79
2018-06-10T12:20:48.673Z,19.68
2018-06-10T12:52:43.649Z,19.14
2018-06-10T12:54:11.708Z,19.22
2018-06-10T12:55:39.176Z,19.28
2018-06-10T12:57:05.455Z,19.33
2018-06-10T12:58:34.078Z,19.37
2018-06-10T13:00:00.560Z,19.38
2018-06-10T13:01:28.173Z,19.39
2018-06-10T13:02:55.435Z,19.41
2018-06-10T13:04:22.762Z,19.43
2018-06-10T13:05:51.244Z,19.41
2018-06-10T13:07:18.569Z,19.34
2018-06-10T13:08:45.373Z,19.32
2018-06-10T13:10:12.618Z,19.37
2018-06-10T13:11:40.072Z,19.37
2018-06-10T13:13:08.402Z,19.35
2018-06-10T13:14:34.768Z,19.31
2018-06-10T13:16:02.361Z,19.26
2018-06-10T13:17:29.719Z,19.20
2018-06-10T13:18:58.159Z,19.16
2018-06-10T13:20:24.780Z,19.10
2018-06-10T13:21:52.290Z,19.03
2018-06-10T13:23:19.761Z,19.01
2018-06-10T13:24:48.302Z,18.94
2018-06-10T13:26:15.609Z,18.88
2018-06-10T13:27:41.893Z,18.86
2018-06-10T13:29:09.239Z,18.84
2018-06-10T13:30:36.558Z,18.81
2018-06-10T13:32:05.166Z,18.79
2018-06-10T13:33:31.652Z,18.80
2018-06-10T13:35:00.072Z,18.80
2018-06-10T13:36:27.615Z,18.80
2018-06-10T13:37:54.752Z,18.81
2018-06-10T13:39:20.986Z,18.82
2018-06-10T13:40:48.393Z,18.84
2018-06-10T13:42:16.031Z,18.86
2018-06-10T13:43:44.534Z,18.90
2018-06-10T13:45:11.132Z,18.92
2018-06-10T13:46:38.572Z,18.92
2018-06-10T13:48:06.949Z,18.91
2018-06-10T13:49:33.611Z,18.90
2018-06-10T13:51:02.038Z,18.88
2018-06-10T13:52:28.516Z,18.87
2018-06-10T13:53:57.194Z,18.86
2018-06-10T13:55:23.690Z,18.85
2018-06-10T13:56:52.005Z,18.84
2018-06-10T13:58:18.489Z,18.85
2018-06-10T13:59:46.183Z,18.85
2018-06-10T14:01:13.383Z,18.87
2018-06-10T14:02:40.960Z,18.86
2018-06-10T14:04:09.271Z,18.84
2018-06-10T14:05:35.815Z,18.85
2018-06-10T14:07:03.255Z,18.87
2018-06-10T14:08:30.692Z,18.88
2018-06-10T14:09:58.250Z,18.89
2018-06-10T14:11:26.785Z,18.92
2018-06-10T14:12:53.279Z,18.93
2018-06-10T14:14:21.066Z,18.94
2018-06-10T14:15:49.391Z,18.94
2018-06-10T14:17:15.729Z,18.95
2018-06-10T14:18:44.351Z,18.96
2018-06-10T14:20:11.424Z,18.98
2018-06-10T14:21:38.544Z,19.00
2018-06-10T14:23:04.485Z,19.00
2018-06-10T14:24:33.087Z,19.00
2018-06-10T14:25:59.540Z,18.97
2018-06-10T14:27:28.153Z,18.96
2018-06-10T14:28:55.655Z,18.95
2018-06-10T14:30:22.327Z,18.92
2018-06-10T14:31:50.756Z,18.89
2018-06-10T14:33:16.956Z,18.87
2018-06-10T14:34:45.485Z,18.87
2018-06-10T14:36:12.736Z,18.88
2018-06-10T14:37:39.321Z,18.89
2018-06-10T14:39:06.810Z,18.91
2018-06-10T14:40:33.780Z,18.93
2018-06-10T14:42:01.386Z,18.93
2018-06-10T14:43:28.868Z,18.94
2018-06-10T14:44:57.309Z,18.95
2018-06-10T14:46:23.559Z,18.98
2018-06-10T14:47:51.070Z,18.97
2018-06-10T14:49:18.694Z,18.98
2018-06-10T14:50:47.211Z,19.01
2018-06-10T14:52:13.438Z,19.03
2018-06-10T14:53:40.886Z,19.07
2018-06-10T14:55:08.266Z,19.12
2018-06-10T14:56:35.544Z,19.15
2018-06-10T14:58:04.118Z,19.15
2018-06-10T14:59:30.570Z,19.14
2018-06-10T15:00:58.113Z,19.13
2018-06-10T15:02:25.095Z,19.15
2018-06-10T15:03:52.630Z,19.17
2018-06-10T15:05:20.087Z,19.21
2018-06-10T15:06:47.499Z,19.21
2018-06-10T15:08:15.096Z,19.19
2018-06-10T15:09:42.480Z,19.15
2018-06-10T15:11:10.815Z,19.10
2018-06-10T15:12:37.151Z,19.03
2018-06-10T15:14:07.274Z,18.96
2018-06-10T15:15:31.848Z,18.92
2018-06-10T15:16:59.318Z,18.92
2018-06-10T15:18:27.941Z,18.96
2018-06-10T15:19:54.393Z,19.00
2018-06-10T15:21:21.942Z,19.02
2018-06-10T15:22:50.511Z,19.02
2018-06-10T15:24:17.772Z,19.01
2018-06-10T15:25:44.229Z,19.04
2018-06-10T15:27:11.665Z,19.09
2018-06-10T15:28:39.658Z,19.15
2018-06-10T15:30:06.289Z,19.21
2018-06-10T15:31:33.543Z,19.26
2018-06-10T15:33:01.335Z,19.31
2018-06-10T15:34:29.933Z,19.37
2018-06-10T15:35:57.556Z,19.43
2018-06-10T15:37:23.440Z,19.48
2018-06-10T15:38:50.981Z,19.54
2018-06-10T15:40:18.258Z,19.61
2018-06-10T15:41:46.860Z,19.68
2018-06-10T15:43:13.304Z,19.74
2018-06-10T15:44:40.621Z,19.81
2018-06-10T15:46:07.904Z,19.85
2018-06-10T15:47:35.239Z,19.89
2018-06-10T15:49:03.863Z,19.93
2018-06-10T15:50:30.474Z,19.94
2018-06-10T15:51:57.747Z,19.98
2018-06-10T15:53:26.102Z,20.01
2018-06-10T15:54:53.738Z,20.03
2018-06-10T15:56:20.129Z,20.05
2018-06-10T15:57:47.449Z,20.04
2018-06-10T15:59:14.940Z,20.02
2018-06-10T16:00:42.143Z,19.98
2018-06-10T16:02:09.365Z,19.95
2018-06-10T16:03:36.865Z,19.92
2018-06-10T16:05:05.318Z,19.89
2018-06-10T16:06:31.825Z,19.88
2018-06-10T16:07:59.220Z,19.84
2018-06-10T16:09:26.931Z,19.78
2018-06-10T16:10:54.398Z,19.73
2018-06-10T16:12:22.017Z,19.69
2018-06-10T16:13:50.619Z,19.68
2018-06-10T16:15:16.912Z,19.68
2018-06-10T16:16:44.462Z,19.70
2018-06-10T16:18:12.921Z,19.72
2018-06-10T16:19:40.484Z,19.74
2018-06-10T16:21:06.944Z,19.74
2018-06-10T16:22:35.687Z,19.73
2018-06-10T16:24:01.810Z,19.71
2018-06-10T16:25:29.377Z,19.68
2018-06-10T16:26:56.994Z,19.64
2018-06-10T16:28:25.703Z,19.61
2018-06-10T16:29:52.213Z,19.60
2018-06-10T16:31:19.574Z,19.59
2018-06-10T16:32:46.978Z,19.60
2018-06-10T16:34:15.514Z,19.61
2018-06-10T16:35:42.700Z,19.63
2018-06-10T16:37:09.016Z,19.64
2018-06-10T16:38:36.499Z,19.65
2018-06-10T16:40:03.744Z,19.64
2018-06-10T16:41:32.288Z,19.62
2018-06-10T16:42:58.891Z,19.60
2018-06-10T16:44:26.401Z,19.57
2018-06-10T16:45:53.933Z,19.56
2018-06-10T16:47:22.441Z,19.56
2018-06-10T16:48:49.059Z,19.56
2018-06-10T16:50:16.493Z,19.54
2018-06-10T16:51:44.104Z,19.55
2018-06-10T16:53:11.755Z,19.56
2018-06-10T16:54:40.479Z,19.57
2018-06-10T16:56:06.966Z,19.57
2018-06-10T16:57:35.484Z,19.58
2018-06-10T16:59:01.920Z,19.60
2018-06-10T17:00:30.277Z,19.62
2018-06-10T17:01:57.976Z,19.64
2018-06-10T17:03:24.549Z,19.63
2018-06-10T17:04:52.017Z,19.63
2018-06-10T17:06:20.659Z,19.64
2018-06-10T17:07:48.212Z,19.65
2018-06-10T17:09:15.651Z,19.66
2018-06-10T17:10:42.003Z,19.69
2018-06-10T17:12:09.550Z,19.70
2018-06-10T17:13:36.953Z,19.72
2018-06-10T17:15:04.631Z,19.74
2018-06-10T17:16:33.139Z,19.75
2018-06-10T17:17:59.645Z,19.77
2018-06-10T17:19:26.927Z,19.79
2018-06-10T17:20:54.466Z,19.81
2018-06-10T17:22:21.887Z,19.82
2018-06-10T17:23:49.664Z,19.83
2018-06-10T17:25:17.152Z,19.84
2018-06-10T17:26:44.704Z,19.83
2018-06-10T17:28:12.208Z,19.83
2018-06-10T17:29:39.692Z,19.82
2018-06-10T17:31:08.191Z,19.79
2018-06-10T17:32:34.744Z,19.77
2018-06-10T17:34:03.490Z,19.75
2018-06-10T17:35:30.990Z,19.72
2018-06-10T17:36:57.309Z,19.71
2018-06-10T17:38:25.046Z,19.69
2018-06-10T17:39:52.615Z,19.67
2018-06-10T17:41:20.373Z,19.68
2018-06-10T17:42:47.668Z,19.70
2018-06-10T17:44:15.266Z,19.73
2018-06-10T17:45:43.796Z,19.74
2018-06-10T17:47:11.423Z,19.75
2018-06-10T17:48:37.937Z,19.75
2018-06-10T17:50:05.456Z,19.75
2018-06-10T17:51:32.921Z,19.77
2018-06-10T17:53:01.560Z,19.79
2018-06-10T17:54:27.965Z,19.78
2018-06-10T17:55:56.679Z,19.77
2018-06-10T17:57:23.190Z,19.73
2018-06-10T17:58:50.827Z,19.72
2018-06-10T18:00:18.402Z,19.72
2018-06-10T18:01:46.010Z,19.73
2018-06-10T18:03:14.562Z,19.75
2018-06-10T18:04:41.124Z,19.78
2018-06-10T18:06:08.696Z,19.79
2018-06-10T18:07:37.003Z,19.80
2018-06-10T18:09:04.562Z,19.81
2018-06-10T18:10:31.125Z,19.83
2018-06-10T18:11:59.577Z,19.85
2018-06-10T18:13:32.320Z,19.86
2018-06-10T18:14:53.706Z,19.87
2018-06-10T18:16:22.189Z,19.89
2018-06-10T18:17:48.683Z,19.90
2018-06-10T18:19:17.521Z,19.93
2018-06-10T18:20:43.966Z,19.96
2018-06-10T18:22:11.380Z,19.98
2018-06-10T18:23:39.195Z,20.01
2018-06-10T18:25:06.713Z,20.04
2018-06-10T18:26:34.294Z,20.06
2018-06-10T18:28:01.810Z,20.07
2018-06-10T18:29:30.493Z,20.09
2018-06-10T18:30:56.857Z,20.10
2018-06-10T18:32:24.228Z,20.10
2018-06-10T18:33:51.843Z,20.12
2018-06-10T18:35:19.662Z,20.13
2018-06-10T18:36:47.054Z,20.15
2018-06-10T18:38:14.497Z,20.17
2018-06-10T18:39:41.900Z,20.19
2018-06-10T18:41:10.519Z,20.21
2018-06-10T18:42:38.081Z,20.22
2018-06-10T18:44:04.581Z,20.23
2018-06-10T18:45:33.193Z,20.24
2018-06-10T18:46:59.955Z,20.24
2018-06-10T18:48:27.210Z,20.24
2018-06-10T18:49:54.705Z,20.23
2018-06-10T18:51:22.185Z,20.22
2018-06-10T18:52:49.751Z,20.22
2018-06-10T18:54:17.131Z,20.22
2018-06-10T18:55:44.826Z,20.22
2018-06-10T18:57:12.192Z,20.23
2018-06-10T18:58:39.715Z,20.22
2018-06-10T19:00:08.428Z,20.22
2018-06-10T19:01:35.028Z,20.22
2018-06-10T19:03:03.740Z,20.21
2018-06-10T19:04:30.275Z,20.20
2018-06-10T19:05:57.894Z,20.16
2018-06-10T19:07:25.294Z,20.14
2018-06-10T19:08:53.016Z,20.10
2018-06-10T19:10:20.620Z,20.09
2018-06-10T19:11:48.079Z,20.06
2018-06-10T19:13:16.658Z,20.05
2018-06-10T19:14:42.955Z,20.04
2018-06-10T19:16:10.651Z,20.04
2018-06-10T19:17:39.232Z,20.05
2018-06-10T19:19:05.792Z,20.06